Flight Number: AVA1358 Duration: 1:30
Departure: Ljubljana (LJLJ) at 04:15 Distance: 427.878 Nm
Arrival: Marseille-Provence (LFML) at 05:45 Equipment: B737

Weather Information
Ljubljana / Brnik, Slovenia (LJLJ) 46-13N 014-29E 362M Jul 27, 2021 - 04:30 PM EDT / 2021.07.27 2030 UTC
Wind: from the WNW (300 degrees) at 9 MPH (8 KT):0
Visibility: greater than 7 mile(s):0
Sky conditions: mostly cloudy Weather: Towering cumulus clouds observed Temperature: 68 F (20 C) Dew Point: 60 F (16 C) Relative Humidity: 77% Pressure (altimeter): 30.06 in. Hg (1018 hPa)
ob: LJLJ 272030Z 30008KT 9999 FEW045TCU SCT070 BKN100 20/16 Q1018 NOSIG cycle: 20
Sunrise: 03:42 Sunset: 18:34 (UTC)

Marseille / Marignane, France (LFML) 43-27N 005-14E 36M Jul 27, 2021 - 04:30 PM EDT / 2021.07.27 2030 UTC
Wind: from the SE (130 degrees) at 5 MPH (4 KT):0
Visibility: greater than 7 mile(s):0 Temperature: 71 F (22 C) Dew Point: 64 F (18 C) Relative Humidity: 78% Pressure (altimeter): 29.94 in. Hg (1014 hPa)
ob: LFML 272030Z AUTO 13004KT CAVOK 22/18 Q1014 NOSIG cycle: 20
Sunrise: 04:28 Sunset: 19:03 (UTC)

TAF:2021/07/27 21:24 TAF TAF LFML 272000Z 2721/2903 14004KT CAVOK TX31/2813Z TN21/2803Z TEMPO 2805/2809 34010KT SHRA BKN020 SCT050CB BECMG 2812/2814 26010KT BECMG 2819/2821 VRB02KT

This route has never been flown.

Route map